Time;durP1;ratioP1;P1;durP2;ratioP2;P2;SDS_P1;SDS_P2;PMS_P1;PMS_P2;Temp;Humidity;BMP_temperature;BMP_pressure;BME280_temperature;BME280_humidity;BME280_pressure;Samples;Min_cycle;Max_cycle;Signal;HPM_P1;HPM_P2
2024/03/03 00:01:20;;;;;;;7.05;4.47;;;12.80;99.90;;;;;;4061603;28;20108;-68
2024/03/03 00:03:21;;;;;;;6.82;4.25;;;12.80;99.90;;;;;;4082078;28;20032;-69
2024/03/03 00:05:21;;;;;;;6.07;4.20;;;12.80;99.90;;;;;;4063622;28;20050;-69
2024/03/03 00:07:22;;;;;;;7.18;4.43;;;12.80;99.90;;;;;;4063260;28;20079;-70
2024/03/03 00:09:23;;;;;;;6.88;4.45;;;12.80;99.90;;;;;;4062849;29;20067;-69
2024/03/03 00:11:23;;;;;;;6.28;4.28;;;12.80;99.90;;;;;;4062142;28;20494;-69
2024/03/03 00:13:27;;;;;;;8.98;5.25;;;12.80;99.90;;;;;;4063561;29;20040;-70
2024/03/03 00:15:28;;;;;;;9.00;4.75;;;12.70;99.90;;;;;;4061653;28;20107;-68
2024/03/03 00:17:28;;;;;;;6.15;4.13;;;12.70;99.90;;;;;;4062512;29;20561;-69
2024/03/03 00:19:29;;;;;;;6.78;4.40;;;12.70;99.90;;;;;;4061606;29;20069;-68
2024/03/03 00:21:30;;;;;;;7.90;4.78;;;12.70;99.90;;;;;;4062334;28;20039;-69
2024/03/03 00:23:30;;;;;;;8.68;4.95;;;12.70;99.90;;;;;;4063220;28;20457;-69
2024/03/03 00:25:31;;;;;;;7.47;4.68;;;12.60;99.90;;;;;;4060758;29;20036;-71
2024/03/03 00:27:31;;;;;;;6.90;4.68;;;12.60;99.90;;;;;;4063227;29;20099;-71
2024/03/03 00:29:32;;;;;;;6.63;4.45;;;12.60;99.90;;;;;;4075223;29;20487;-70
2024/03/03 00:31:33;;;;;;;6.68;4.30;;;12.60;99.90;;;;;;4084889;28;20051;-70
2024/03/03 00:33:33;;;;;;;8.82;4.75;;;12.60;99.90;;;;;;4095196;28;20035;-70
2024/03/03 00:35:34;;;;;;;6.15;4.15;;;12.60;99.90;;;;;;4094088;28;20045;-70
2024/03/03 00:37:35;;;;;;;6.90;3.58;;;12.60;99.90;;;;;;4094426;28;20489;-72
2024/03/03 00:39:37;;;;;;;5.57;4.03;;;12.60;99.90;;;;;;4080314;29;20094;-71
2024/03/03 00:41:38;;;;;;;8.98;5.00;;;12.60;99.90;;;;;;4093055;28;20595;-69
2024/03/03 00:43:38;;;;;;;6.45;4.15;;;12.60;99.90;;;;;;4100880;28;20031;-69
2024/03/03 00:45:39;;;;;;;6.43;4.28;;;12.50;99.90;;;;;;4093081;28;20047;-69
2024/03/03 00:47:40;;;;;;;6.43;4.30;;;12.50;99.90;;;;;;4094194;28;20493;-69
2024/03/03 00:49:40;;;;;;;5.38;4.03;;;12.50;99.90;;;;;;4090860;28;20035;-71
2024/03/03 00:51:41;;;;;;;6.53;4.30;;;12.50;99.90;;;;;;4089463;28;20476;-71
2024/03/03 00:53:41;;;;;;;6.93;4.25;;;12.50;99.90;;;;;;4093292;28;20397;-69
2024/03/03 00:55:48;;;;;;;6.95;4.15;;;12.50;99.90;;;;;;4090534;28;20040;-69
2024/03/03 00:57:49;;;;;;;7.75;4.30;;;12.50;99.90;;;;;;4098876;28;20035;-71
2024/03/03 00:59:50;;;;;;;6.13;4.22;;;12.50;99.90;;;;;;4093669;28;20042;-69
2024/03/03 01:01:50;;;;;;;6.15;4.13;;;12.50;99.90;;;;;;4092518;28;20479;-71
2024/03/03 01:03:54;;;;;;;6.18;4.30;;;12.50;99.90;;;;;;4090334;28;20505;-69
2024/03/03 01:05:54;;;;;;;5.10;3.65;;;12.50;99.90;;;;;;4093475;28;20497;-69
2024/03/03 01:07:55;;;;;;;6.25;3.97;;;12.50;99.90;;;;;;4094630;28;20040;-69
2024/03/03 01:09:56;;;;;;;5.80;3.97;;;12.50;99.90;;;;;;4093359;28;20051;-69
2024/03/03 01:11:56;;;;;;;7.75;4.10;;;12.40;99.90;;;;;;4075707;29;20486;-72
2024/03/03 01:13:57;;;;;;;7.50;4.07;;;12.50;99.90;;;;;;4094068;28;20117;-69
2024/03/03 01:15:57;;;;;;;6.10;4.10;;;12.50;99.90;;;;;;4094490;28;20031;-69
2024/03/03 01:17:58;;;;;;;6.78;4.30;;;12.40;99.90;;;;;;4092122;28;20062;-69
2024/03/03 01:19:59;;;;;;;8.00;4.53;;;12.40;99.90;;;;;;4087089;28;20058;-69
2024/03/03 01:21:59;;;;;;;6.88;4.82;;;12.40;99.90;;;;;;4075397;29;20044;-67
2024/03/03 01:24:00;;;;;;;6.85;4.38;;;12.40;99.90;;;;;;4093152;28;20130;-65
2024/03/03 01:26:01;;;;;;;6.47;4.82;;;12.40;99.90;;;;;;4092646;28;20446;-66
2024/03/03 01:28:01;;;;;;;8.30;4.55;;;12.40;99.90;;;;;;4094310;28;20114;-68
2024/03/03 01:30:03;;;;;;;7.72;4.82;;;12.40;99.90;;;;;;4094542;28;20174;-68
2024/03/03 01:32:04;;;;;;;7.07;4.72;;;12.40;99.90;;;;;;4096051;28;20107;-66
2024/03/03 01:34:05;;;;;;;6.28;4.32;;;12.40;99.90;;;;;;4094154;28;20041;-67
2024/03/03 01:36:06;;;;;;;7.07;4.22;;;12.40;99.90;;;;;;4093625;28;20118;-68
2024/03/03 01:38:12;;;;;;;5.82;4.35;;;12.40;99.90;;;;;;4094307;28;20027;-69
2024/03/03 01:40:13;;;;;;;7.43;4.32;;;12.40;99.90;;;;;;4092374;28;20046;-69
2024/03/03 01:42:14;;;;;;;7.43;4.45;;;12.30;99.90;;;;;;4093377;28;20114;-70
2024/03/03 01:44:15;;;;;;;7.15;4.60;;;12.30;99.90;;;;;;4092474;28;20098;-70
2024/03/03 01:46:16;;;;;;;7.40;4.57;;;12.30;99.90;;;;;;4094836;28;20331;-70
2024/03/03 01:48:16;;;;;;;6.25;4.28;;;12.30;99.90;;;;;;4095618;28;20047;-70
2024/03/03 01:50:19;;;;;;;5.20;3.90;;;12.30;99.90;;;;;;4094797;28;20059;-70
2024/03/03 01:52:20;;;;;;;7.43;4.25;;;12.30;99.90;;;;;;4092333;28;20468;-69
2024/03/03 01:54:20;;;;;;;7.05;4.25;;;12.30;99.90;;;;;;4092879;28;20039;-69
2024/03/03 01:56:24;;;;;;;5.43;4.10;;;12.30;99.90;;;;;;4092108;28;20062;-71
2024/03/03 01:58:27;;;;;;;5.72;3.88;;;12.30;99.90;;;;;;4093830;28;20089;-70
2024/03/03 02:00:29;;;;;;;;;;;12.30;99.90;;;;;;4087158;28;20043;-69
2024/03/03 02:02:31;;;;;;;4.60;3.38;;;12.30;99.90;;;;;;4095938;28;20312;-71
2024/03/03 02:04:35;;;;;;;6.07;3.78;;;12.30;99.90;;;;;;4080438;29;20506;-71
2024/03/03 02:06:38;;;;;;;7.97;4.00;;;12.30;99.90;;;;;;4091456;28;20054;-71
2024/03/03 02:08:38;;;;;;;5.80;3.80;;;12.30;99.90;;;;;;4079468;29;20044;-69
2024/03/03 02:10:39;;;;;;;5.22;3.63;;;12.30;99.90;;;;;;4097481;28;20035;-72
2024/03/03 02:12:40;;;;;;;5.78;3.83;;;12.30;99.90;;;;;;4096025;28;20058;-70
2024/03/03 02:14:41;;;;;;;6.75;4.28;;;12.30;99.90;;;;;;4079571;29;20040;-71
2024/03/03 02:16:42;;;;;;;5.40;3.83;;;12.30;99.90;;;;;;4075571;28;20087;-70
2024/03/03 02:18:42;;;;;;;6.65;3.90;;;12.20;99.90;;;;;;4086787;28;20035;-70
2024/03/03 02:20:43;;;;;;;5.90;3.95;;;12.30;99.90;;;;;;4095173;28;20078;-72
2024/03/03 02:22:44;;;;;;;5.35;3.67;;;12.30;99.90;;;;;;4097230;28;20397;-69
2024/03/03 02:24:44;;;;;;;5.72;3.60;;;12.30;99.90;;;;;;4096454;28;20090;-70
2024/03/03 02:26:46;;;;;;;5.25;3.85;;;12.30;99.90;;;;;;4095131;28;20040;-70
2024/03/03 02:28:47;;;;;;;6.00;4.38;;;12.30;99.90;;;;;;4078724;29;20114;-71
2024/03/03 02:30:48;;;;;;;8.80;4.57;;;12.30;99.90;;;;;;4077022;29;20039;-69
2024/03/03 02:32:50;;;;;;;6.95;4.40;;;12.30;99.90;;;;;;4093541;28;20034;-69
2024/03/03 02:34:50;;;;;;;8.18;4.70;;;12.20;99.90;;;;;;4094972;28;20474;-71
2024/03/03 02:36:51;;;;;;;7.03;4.25;;;12.30;99.90;;;;;;4083513;29;20031;-69
2024/03/03 02:38:52;;;;;;;6.38;3.83;;;12.20;99.90;;;;;;4095612;28;20039;-72
2024/03/03 02:40:52;;;;;;;6.18;4.03;;;12.30;99.90;;;;;;4094228;28;20604;-71
2024/03/03 02:42:53;;;;;;;6.22;3.85;;;12.20;99.90;;;;;;4095641;28;20086;-71
2024/03/03 02:44:53;;;;;;;5.53;3.35;;;12.20;99.90;;;;;;4091379;29;20034;-71
2024/03/03 02:46:54;;;;;;;5.43;3.80;;;12.20;99.90;;;;;;4096396;28;20031;-71
2024/03/03 02:48:55;;;;;;;6.88;4.38;;;12.20;99.90;;;;;;4087598;28;20031;-68
2024/03/03 02:50:55;;;;;;;4.78;3.42;;;12.10;99.90;;;;;;4092640;28;20100;-68
2024/03/03 02:52:56;;;;;;;4.93;3.58;;;12.10;99.90;;;;;;4100847;28;20509;-68
2024/03/03 02:54:56;;;;;;;5.90;3.40;;;12.10;99.90;;;;;;4093470;28;20027;-68
2024/03/03 02:56:57;;;;;;;8.00;3.63;;;12.10;99.90;;;;;;4094644;28;20027;-68
2024/03/03 02:58:58;;;;;;;5.38;3.85;;;12.10;99.90;;;;;;4094635;28;20031;-69
2024/03/03 03:00:58;;;;;;;5.55;3.90;;;12.00;99.90;;;;;;4093217;28;20046;-68
2024/03/03 03:02:59;;;;;;;6.40;3.60;;;12.00;99.90;;;;;;4095869;28;20035;-68
2024/03/03 03:05:00;;;;;;;6.40;3.47;;;12.10;99.90;;;;;;4092281;28;20078;-70
2024/03/03 03:07:00;;;;;;;5.47;3.58;;;12.10;99.90;;;;;;4096288;28;20031;-67
2024/03/03 03:09:01;;;;;;;5.72;3.80;;;12.00;99.90;;;;;;4093982;28;20031;-65
2024/03/03 03:11:02;;;;;;;5.53;3.47;;;12.00;99.90;;;;;;4092723;28;20471;-66
2024/03/03 03:13:04;;;;;;;7.13;4.00;;;12.00;99.90;;;;;;4094312;28;20508;-66
2024/03/03 03:15:05;;;;;;;5.40;3.50;;;12.00;99.90;;;;;;4096148;28;20094;-68
2024/03/03 03:17:07;;;;;;;4.57;3.30;;;12.00;99.90;;;;;;4091017;28;20038;-66
2024/03/03 03:19:08;;;;;;;4.90;3.53;;;12.00;99.90;;;;;;4094528;28;20046;-66
2024/03/03 03:21:09;;;;;;;4.25;2.90;;;12.00;99.90;;;;;;4096292;28;20028;-66
2024/03/03 03:23:09;;;;;;;4.03;3.15;;;12.00;99.90;;;;;;4094764;28;20042;-67
2024/03/03 03:25:12;;;;;;;5.90;3.38;;;12.00;99.90;;;;;;4090989;28;20122;-67
2024/03/03 03:27:15;;;;;;;5.72;3.13;;;12.10;99.90;;;;;;4102721;28;20129;-66
2024/03/03 03:29:16;;;;;;;5.82;3.28;;;12.10;99.90;;;;;;4095288;28;20047;-69
2024/03/03 03:31:16;;;;;;;4.50;3.10;;;12.00;99.90;;;;;;4096680;28;20051;-69
2024/03/03 03:33:17;;;;;;;5.07;3.67;;;12.00;99.90;;;;;;4092820;28;20041;-69
2024/03/03 03:35:18;;;;;;;5.38;3.05;;;12.00;99.90;;;;;;4102041;28;20515;-67
2024/03/03 03:37:18;;;;;;;5.30;3.58;;;12.00;99.90;;;;;;4103500;28;20047;-66
2024/03/03 03:39:19;;;;;;;5.15;3.63;;;12.00;99.90;;;;;;4093277;28;20050;-67
2024/03/03 03:41:20;;;;;;;5.68;3.78;;;12.00;99.90;;;;;;4093780;28;20047;-68
2024/03/03 03:43:20;;;;;;;5.90;3.88;;;12.00;99.90;;;;;;4096160;28;20062;-69
2024/03/03 03:45:21;;;;;;;6.15;3.90;;;12.00;99.90;;;;;;4092350;28;20034;-68
2024/03/03 03:47:21;;;;;;;4.95;3.53;;;12.00;99.90;;;;;;4095491;28;20608;-67
2024/03/03 03:49:22;;;;;;;6.10;3.83;;;12.00;99.90;;;;;;4094690;28;20057;-66
2024/03/03 03:51:23;;;;;;;5.05;3.25;;;12.00;99.90;;;;;;4064814;29;20047;-68
2024/03/03 03:53:23;;;;;;;4.82;3.35;;;12.00;99.90;;;;;;4096182;28;20490;-66
2024/03/03 03:55:24;;;;;;;4.82;3.33;;;12.10;99.90;;;;;;4091823;28;20511;-67
2024/03/03 03:57:25;;;;;;;6.13;3.78;;;12.00;99.90;;;;;;4078720;29;20055;-68
2024/03/03 03:59:25;;;;;;;8.57;4.40;;;12.00;99.90;;;;;;4077034;29;20035;-71
2024/03/03 04:01:28;;;;;;;6.32;3.90;;;12.00;99.90;;;;;;4092114;28;20126;-70
2024/03/03 04:03:28;;;;;;;5.38;3.58;;;12.00;99.90;;;;;;4095382;28;20032;-70
2024/03/03 04:05:29;;;;;;;5.70;3.85;;;12.00;99.90;;;;;;4093885;28;20041;-70
2024/03/03 04:07:30;;;;;;;6.90;3.88;;;11.90;99.90;;;;;;4092076;28;20038;-70
2024/03/03 04:09:32;;;;;;;4.78;3.35;;;11.90;99.90;;;;;;4092480;28;20036;-70
2024/03/03 04:11:32;;;;;;;8.63;4.35;;;11.90;99.90;;;;;;4093215;28;20386;-71
2024/03/03 04:13:33;;;;;;;6.00;4.00;;;11.90;99.90;;;;;;4090925;28;20037;-70
2024/03/03 04:15:34;;;;;;;5.35;3.80;;;11.90;99.90;;;;;;4097279;28;20385;-70
2024/03/03 04:17:35;;;;;;;6.82;4.00;;;11.90;99.90;;;;;;4082003;28;20108;-70
2024/03/03 04:19:41;;;;;;;5.93;4.00;;;11.90;99.90;;;;;;4094294;28;20034;-70
2024/03/03 04:21:42;;;;;;;6.25;4.00;;;11.80;99.90;;;;;;4083688;29;20122;-70
2024/03/03 04:23:43;;;;;;;5.30;3.70;;;11.90;99.90;;;;;;4085519;28;20123;-71
2024/03/03 04:25:44;;;;;;;9.18;4.18;;;11.80;99.90;;;;;;4076774;29;20095;-69
2024/03/03 04:27:45;;;;;;;6.93;4.07;;;11.80;99.90;;;;;;4098187;28;20031;-70
2024/03/03 04:29:47;;;;;;;5.00;3.45;;;11.80;99.90;;;;;;4093385;28;20583;-69
2024/03/03 04:31:48;;;;;;;5.05;3.83;;;11.80;99.90;;;;;;4096822;28;20062;-70
2024/03/03 04:33:48;;;;;;;6.65;3.60;;;11.80;99.90;;;;;;4093615;28;20039;-71
2024/03/03 04:35:49;;;;;;;7.60;4.32;;;11.80;99.90;;;;;;4093504;28;20031;-71
2024/03/03 04:37:50;;;;;;;5.88;3.85;;;11.70;99.90;;;;;;4094936;28;20449;-70
2024/03/03 04:39:50;;;;;;;7.05;4.35;;;11.80;99.90;;;;;;4093314;28;21162;-70
2024/03/03 04:41:51;;;;;;;9.27;4.63;;;11.70;99.90;;;;;;4088960;28;20104;-69
2024/03/03 04:43:52;;;;;;;7.32;4.40;;;11.70;99.90;;;;;;4088534;28;20122;-71
2024/03/03 04:45:52;;;;;;;6.32;4.20;;;11.70;99.90;;;;;;4093383;28;20433;-71
2024/03/03 04:47:53;;;;;;;6.63;4.50;;;11.70;99.90;;;;;;4095164;28;20063;-71
2024/03/03 04:49:53;;;;;;;6.85;4.50;;;11.70;99.90;;;;;;4083720;29;20039;-70
2024/03/03 04:51:54;;;;;;;7.07;4.50;;;11.60;99.90;;;;;;4088696;28;20159;-69
2024/03/03 04:53:55;;;;;;;6.22;4.13;;;11.70;99.90;;;;;;4096199;28;20382;-69
2024/03/03 04:55:55;;;;;;;6.18;4.00;;;11.70;99.90;;;;;;4090172;28;20382;-70
2024/03/03 04:57:56;;;;;;;6.45;4.20;;;11.70;99.90;;;;;;4090961;28;20031;-72
2024/03/03 04:59:57;;;;;;;9.85;4.35;;;11.70;99.90;;;;;;4087676;28;20046;-70
2024/03/03 05:01:57;;;;;;;6.65;4.07;;;11.60;99.90;;;;;;4090137;28;20402;-69
2024/03/03 05:04:00;;;;;;;6.88;4.18;;;11.60;99.90;;;;;;4084374;28;20039;-69
2024/03/03 05:06:01;;;;;;;7.93;4.55;;;11.60;99.90;;;;;;4092708;28;20023;-70
2024/03/03 05:08:01;;;;;;;7.88;4.72;;;11.70;99.90;;;;;;4086095;29;20036;-69
2024/03/03 05:10:02;;;;;;;6.72;4.68;;;11.70;99.90;;;;;;4091352;28;20421;-69
2024/03/03 05:12:03;;;;;;;8.13;4.97;;;11.60;99.90;;;;;;4074311;28;20103;-66
2024/03/03 05:14:05;;;;;;;8.43;5.10;;;11.60;99.90;;;;;;4082786;29;20032;-66
2024/03/03 05:16:07;;;;;;;7.55;5.10;;;11.60;99.90;;;;;;4091443;28;20497;-66
2024/03/03 05:18:07;;;;;;;8.52;5.18;;;11.60;99.90;;;;;;4086370;29;20031;-68
2024/03/03 05:20:08;;;;;;;9.45;5.72;;;11.60;99.90;;;;;;4088900;28;20339;-67
2024/03/03 05:22:09;;;;;;;8.88;5.30;;;11.60;99.90;;;;;;4075958;29;20442;-66
2024/03/03 05:24:10;;;;;;;9.95;5.82;;;11.60;99.90;;;;;;4093375;28;20051;-68
2024/03/03 05:26:16;;;;;;;9.60;6.07;;;11.60;99.90;;;;;;4091600;28;20042;-67
2024/03/03 05:28:16;;;;;;;11.40;5.75;;;11.60;99.90;;;;;;4095007;28;20078;-68
2024/03/03 05:30:17;;;;;;;9.30;5.57;;;11.60;99.90;;;;;;4093874;28;20028;-67
2024/03/03 05:32:18;;;;;;;9.82;5.70;;;11.60;99.90;;;;;;4076584;29;20502;-68
2024/03/03 05:34:18;;;;;;;9.57;5.68;;;11.60;99.90;;;;;;4062884;29;20501;-66
2024/03/03 05:36:19;;;;;;;11.35;6.05;;;11.60;99.90;;;;;;4061915;29;20048;-68
2024/03/03 05:38:19;;;;;;;11.90;6.20;;;11.60;99.90;;;;;;4078814;29;20040;-67
2024/03/03 05:40:20;;;;;;;10.27;6.13;;;11.60;99.90;;;;;;4064062;29;20036;-66
2024/03/03 05:42:21;;;;;;;11.38;7.13;;;11.60;99.90;;;;;;4064122;29;20095;-68
2024/03/03 05:44:21;;;;;;;14.13;7.72;;;11.50;99.90;;;;;;4061438;29;20062;-67
2024/03/03 05:46:22;;;;;;;12.32;7.07;;;11.60;99.90;;;;;;4069029;28;20414;-66
2024/03/03 05:48:22;;;;;;;9.85;6.10;;;11.50;99.90;;;;;;4046641;29;20411;-67
2024/03/03 05:50:23;;;;;;;14.40;7.93;;;11.50;99.90;;;;;;4077598;29;20044;-67
2024/03/03 05:52:24;;;;;;;12.18;7.00;;;11.50;99.90;;;;;;4061881;29;20500;-68
2024/03/03 05:54:24;;;;;;;11.80;6.72;;;11.50;99.90;;;;;;4080490;29;20126;-65
2024/03/03 05:56:25;;;;;;;13.73;7.18;;;11.50;99.90;;;;;;4064765;29;20120;-67
2024/03/03 05:58:25;;;;;;;11.15;7.32;;;11.40;99.90;;;;;;4076977;29;20036;-67
2024/03/03 06:00:26;;;;;;;13.38;7.28;;;11.50;99.90;;;;;;4076306;29;20040;-66
2024/03/03 06:02:27;;;;;;;12.75;7.18;;;11.50;99.90;;;;;;4065032;29;20060;-65
2024/03/03 06:04:27;;;;;;;11.25;7.35;;;11.40;99.90;;;;;;4064768;29;20440;-69
2024/03/03 06:06:31;;;;;;;11.90;7.30;;;11.40;99.90;;;;;;4060471;29;20059;-70
2024/03/03 06:08:31;;;;;;;11.68;7.38;;;11.50;99.90;;;;;;4065343;29;20043;-69
2024/03/03 06:10:35;;;;;;;10.85;6.90;;;11.40;99.90;;;;;;4060172;29;20033;-68
2024/03/03 06:12:36;;;;;;;13.65;8.00;;;11.50;99.90;;;;;;4076177;29;20054;-68
2024/03/03 06:14:36;;;;;;;12.43;7.22;;;11.50;99.90;;;;;;4065200;29;20482;-68
2024/03/03 06:16:41;;;;;;;13.52;7.70;;;11.50;99.90;;;;;;4062522;28;20043;-67
2024/03/03 06:18:42;;;;;;;13.75;7.60;;;11.50;99.90;;;;;;4064639;29;20036;-67
2024/03/03 06:20:43;;;;;;;11.55;6.95;;;11.50;99.90;;;;;;4063654;29;20513;-71
2024/03/03 06:22:44;;;;;;;11.65;7.65;;;11.50;99.90;;;;;;4062889;29;20063;-71
2024/03/03 06:24:44;;;;;;;11.88;7.80;;;11.50;99.90;;;;;;4062190;28;20036;-72
2024/03/03 06:26:48;;;;;;;12.77;8.00;;;11.50;99.90;;;;;;4075059;28;20024;-71
2024/03/03 06:28:52;;;;;;;13.02;7.95;;;11.50;99.90;;;;;;4060837;29;20509;-70
2024/03/03 06:30:53;;;;;;;12.25;6.97;;;11.50;99.90;;;;;;4074285;28;20058;-71
2024/03/03 06:32:54;;;;;;;14.98;8.40;;;11.50;99.90;;;;;;4066102;28;20024;-69
2024/03/03 06:34:54;;;;;;;11.98;7.53;;;11.60;99.90;;;;;;4083427;28;20035;-68
2024/03/03 06:36:55;;;;;;;14.77;7.95;;;11.50;99.90;;;;;;4077966;28;20549;-69
2024/03/03 06:38:56;;;;;;;15.30;8.13;;;11.50;99.90;;;;;;4092567;28;20151;-69
2024/03/03 06:40:57;;;;;;;11.75;7.47;;;11.60;99.90;;;;;;4086035;28;20094;-71
2024/03/03 06:42:58;;;;;;;12.65;6.90;;;11.60;99.90;;;;;;4065497;28;20047;-69
2024/03/03 06:45:00;;;;;;;12.18;7.25;;;11.60;99.90;;;;;;4073205;28;20040;-69
2024/03/03 06:47:01;;;;;;;12.68;6.97;;;11.70;99.90;;;;;;4091373;28;20932;-69
2024/03/03 06:49:02;;;;;;;13.65;7.65;;;11.70;99.90;;;;;;4092726;28;20039;-69
2024/03/03 06:51:03;;;;;;;12.48;6.60;;;11.70;99.90;;;;;;4089328;28;20046;-68
2024/03/03 06:53:04;;;;;;;13.93;8.05;;;11.70;99.90;;;;;;4093283;28;20179;-69
2024/03/03 06:55:06;;;;;;;12.18;7.70;;;11.70;99.90;;;;;;4082026;28;20043;-68
2024/03/03 06:57:07;;;;;;;9.40;6.60;;;11.70;99.90;;;;;;4091825;28;20035;-68
2024/03/03 06:59:07;;;;;;;10.88;6.90;;;11.70;99.90;;;;;;4095642;28;20118;-69
2024/03/03 07:01:08;;;;;;;10.93;7.38;;;11.80;99.90;;;;;;4093853;28;20401;-72
2024/03/03 07:05:09;;;;;;;13.02;7.75;;;11.80;99.90;;;;;;4097141;28;20030;-69
2024/03/03 07:07:10;;;;;;;13.02;7.78;;;11.80;99.90;;;;;;4095277;28;20167;-69
2024/03/03 07:09:11;;;;;;;15.10;8.43;;;11.80;99.90;;;;;;4078437;28;20036;-69
2024/03/03 07:11:11;;;;;;;12.25;7.72;;;11.80;99.90;;;;;;4094024;28;20552;-70
2024/03/03 07:13:13;;;;;;;12.73;7.78;;;11.80;99.90;;;;;;4095463;28;20513;-71
2024/03/03 07:15:13;;;;;;;12.95;7.68;;;11.70;99.90;;;;;;4094022;28;20062;-70
2024/03/03 07:17:14;;;;;;;15.27;8.60;;;11.70;99.90;;;;;;4094871;28;20027;-69
2024/03/03 07:19:15;;;;;;;12.75;7.15;;;11.70;99.90;;;;;;4079122;28;20031;-70
2024/03/03 07:21:15;;;;;;;16.98;8.32;;;11.70;99.90;;;;;;4093606;28;20057;-69
2024/03/03 07:23:16;;;;;;;11.23;7.43;;;11.70;99.90;;;;;;4080794;29;20067;-69
2024/03/03 07:25:17;;;;;;;12.05;7.63;;;11.70;99.90;;;;;;4090788;28;20044;-69
2024/03/03 07:27:17;;;;;;;12.05;7.38;;;11.80;99.90;;;;;;4094940;28;20454;-69
2024/03/03 07:29:18;;;;;;;13.30;7.35;;;11.80;99.90;;;;;;4093349;28;20035;-69
2024/03/03 07:31:19;;;;;;;12.38;7.07;;;11.80;99.90;;;;;;4094160;28;20145;-70
2024/03/03 07:33:20;;;;;;;14.25;7.03;;;11.80;99.90;;;;;;4094615;28;20043;-70
2024/03/03 07:35:22;;;;;;;11.02;6.60;;;11.80;99.90;;;;;;4075563;29;21035;-69
2024/03/03 07:37:22;;;;;;;12.75;7.07;;;11.90;99.90;;;;;;4094401;28;20038;-69
2024/03/03 07:39:23;;;;;;;10.38;6.53;;;11.90;99.90;;;;;;4092140;28;20083;-70
2024/03/03 07:41:24;;;;;;;11.25;6.60;;;12.00;99.90;;;;;;4093055;28;20047;-69
2024/03/03 07:43:28;;;;;;;9.40;6.30;;;12.00;99.90;;;;;;4063182;29;20024;-69
2024/03/03 07:45:31;;;;;;;10.75;6.53;;;12.00;99.90;;;;;;4093008;28;20043;-69
2024/03/03 07:47:31;;;;;;;9.75;5.90;;;12.10;99.90;;;;;;4093027;28;20043;-69
2024/03/03 07:49:32;;;;;;;10.85;6.80;;;12.10;99.90;;;;;;4094903;28;20547;-71
2024/03/03 07:51:33;;;;;;;11.73;7.10;;;12.10;99.90;;;;;;4097548;28;20039;-70
2024/03/03 07:53:33;;;;;;;13.52;7.72;;;12.10;99.90;;;;;;4098663;28;20027;-69
2024/03/03 07:55:35;;;;;;;11.43;6.72;;;12.00;99.90;;;;;;4084432;28;20070;-69
2024/03/03 07:57:35;;;;;;;12.20;6.75;;;12.10;99.90;;;;;;4051877;28;20040;-69
2024/03/03 07:59:36;;;;;;;14.45;7.80;;;12.10;99.90;;;;;;4098778;28;20445;-69
2024/03/03 08:01:37;;;;;;;11.55;7.20;;;12.10;99.90;;;;;;4090738;28;20046;-69
2024/03/03 08:03:37;;;;;;;10.90;6.93;;;12.10;99.90;;;;;;4086924;28;20047;-69
2024/03/03 08:05:38;;;;;;;11.85;7.20;;;12.10;99.90;;;;;;4097261;28;20028;-69
2024/03/03 08:07:39;;;;;;;10.68;6.88;;;12.10;99.90;;;;;;4090906;28;20034;-69
2024/03/03 08:09:41;;;;;;;10.18;6.07;;;12.10;99.90;;;;;;4090491;28;20037;-70
2024/03/03 08:11:41;;;;;;;9.57;6.47;;;12.20;99.90;;;;;;4089278;28;20118;-67
2024/03/03 08:13:42;;;;;;;10.70;6.28;;;12.20;99.90;;;;;;4091020;28;20031;-67
2024/03/03 08:15:42;;;;;;;11.32;7.03;;;12.20;99.90;;;;;;4093994;28;20039;-68
2024/03/03 08:17:43;;;;;;;9.95;6.47;;;12.20;99.90;;;;;;4087223;29;20027;-68
2024/03/03 08:19:44;;;;;;;11.73;6.80;;;12.30;99.90;;;;;;4093424;28;20035;-69
2024/03/03 08:21:45;;;;;;;9.95;6.75;;;12.30;99.90;;;;;;4093158;28;20520;-67
2024/03/03 08:23:45;;;;;;;13.02;7.10;;;12.30;99.90;;;;;;4092099;28;20117;-68
2024/03/03 08:25:46;;;;;;;10.00;6.35;;;12.40;99.90;;;;;;4097246;28;20386;-68
2024/03/03 08:27:47;;;;;;;9.68;6.03;;;12.40;99.90;;;;;;4089046;28;20061;-67
2024/03/03 08:29:47;;;;;;;10.63;6.22;;;12.50;99.90;;;;;;4104181;28;20583;-68
2024/03/03 08:31:48;;;;;;;10.85;7.03;;;12.50;99.90;;;;;;4089110;28;20485;-68
2024/03/03 08:33:48;;;;;;;10.57;7.03;;;12.60;99.90;;;;;;4086329;29;20076;-68
2024/03/03 08:35:49;;;;;;;11.32;7.30;;;12.70;99.90;;;;;;4082055;28;20114;-67
2024/03/03 08:37:52;;;;;;;11.88;7.03;;;12.60;99.90;;;;;;4093786;28;20086;-68
2024/03/03 08:39:52;;;;;;;9.75;5.85;;;12.70;99.90;;;;;;4094065;28;20038;-67
2024/03/03 08:41:53;;;;;;;12.45;7.47;;;12.80;99.90;;;;;;4093978;28;20035;-68
2024/03/03 08:43:54;;;;;;;10.57;6.18;;;12.80;99.90;;;;;;4095062;28;20044;-68
2024/03/03 08:45:54;;;;;;;11.38;6.57;;;13.00;99.90;;;;;;4093089;28;20047;-67
2024/03/03 08:47:55;;;;;;;11.65;6.75;;;13.00;99.90;;;;;;4094988;28;20549;-67
2024/03/03 08:49:55;;;;;;;11.48;7.18;;;13.10;99.90;;;;;;4085489;28;20059;-68
2024/03/03 08:51:57;;;;;;;11.75;6.90;;;13.20;99.90;;;;;;4093053;28;20549;-68
2024/03/03 08:53:58;;;;;;;10.27;6.82;;;13.20;99.90;;;;;;4094742;28;20039;-68
2024/03/03 08:55:59;;;;;;;12.00;6.60;;;13.30;99.90;;;;;;4092732;28;20390;-68
2024/03/03 08:58:00;;;;;;;8.63;6.18;;;13.40;99.90;;;;;;4093010;28;20517;-68
2024/03/03 09:00:01;;;;;;;11.10;6.43;;;13.50;99.90;;;;;;4094347;28;20493;-68
2024/03/03 09:02:02;;;;;;;11.15;6.80;;;13.60;99.90;;;;;;4091975;28;20125;-68
2024/03/03 09:04:03;;;;;;;9.77;6.55;;;13.60;99.90;;;;;;4093562;28;20039;-68
2024/03/03 09:06:04;;;;;;;11.30;6.55;;;13.70;99.90;;;;;;4061141;29;20036;-67
2024/03/03 09:08:06;;;;;;;10.88;7.03;;;13.80;99.90;;;;;;4087275;28;20406;-68
2024/03/03 09:10:07;;;;;;;14.73;7.38;;;13.90;99.90;;;;;;4097795;28;20046;-68
2024/03/03 09:12:08;;;;;;;10.75;6.43;;;13.90;99.90;;;;;;4094236;28;20046;-68
2024/03/03 09:14:08;;;;;;;11.88;6.75;;;14.10;99.90;;;;;;4096147;28;20114;-68
2024/03/03 09:16:11;;;;;;;11.80;6.90;;;14.20;99.90;;;;;;4096118;28;20039;-68
2024/03/03 09:18:11;;;;;;;;;;;14.30;99.90;;;;;;4097256;28;20034;-68
2024/03/03 09:20:12;;;;;;;11.20;6.65;;;14.40;99.90;;;;;;4095466;28;19910;-68
2024/03/03 09:22:13;;;;;;;10.52;6.35;;;14.50;99.90;;;;;;4077675;28;20036;-68
2024/03/03 09:24:13;;;;;;;11.25;6.10;;;14.50;99.90;;;;;;4093087;28;20093;-68
2024/03/03 09:26:14;;;;;;;11.48;6.93;;;14.70;99.90;;;;;;4095962;28;20031;-68
2024/03/03 09:28:15;;;;;;;11.18;7.40;;;14.80;99.90;;;;;;4096611;28;20043;-68
2024/03/03 09:30:16;;;;;;;9.10;6.03;;;14.90;99.90;;;;;;4094296;28;20484;-68
2024/03/03 09:32:17;;;;;;;9.82;6.50;;;15.00;99.90;;;;;;4089871;28;20062;-68
2024/03/03 09:34:18;;;;;;;9.80;5.95;;;15.10;99.90;;;;;;4096544;28;20031;-68
2024/03/03 09:36:18;;;;;;;11.60;6.68;;;15.10;99.90;;;;;;4095519;28;20046;-68
2024/03/03 09:38:19;;;;;;;12.27;6.40;;;15.20;99.90;;;;;;4094344;28;20040;-68
2024/03/03 09:40:26;;;;;;;10.85;6.53;;;15.30;99.90;;;;;;4085231;28;20036;-69
2024/03/03 09:42:26;;;;;;;9.70;5.82;;;15.30;99.90;;;;;;4096058;28;20111;-69
2024/03/03 09:44:40;;;;;;;12.20;6.70;;;15.40;99.90;;;;;;4093127;28;20047;-69
2024/03/03 09:46:42;;;;;;;10.48;6.22;;;15.50;99.90;;;;;;4093383;28;20122;-68
2024/03/03 09:48:45;;;;;;;9.27;6.03;;;15.60;99.90;;;;;;4102000;28;20038;-69
2024/03/03 09:50:50;;;;;;;11.10;6.85;;;15.60;99.90;;;;;;4095856;28;20043;-69
2024/03/03 09:52:57;;;;;;;9.38;6.60;;;15.70;99.90;;;;;;4097000;28;20082;-70
2024/03/03 09:54:58;;;;;;;9.30;6.13;;;15.70;99.90;;;;;;4091920;28;20067;-69
2024/03/03 09:57:01;;;;;;;10.82;7.15;;;15.70;99.90;;;;;;4091961;28;20134;-69
2024/03/03 09:59:02;;;;;;;;;;;15.70;99.90;;;;;;4096601;28;20031;-69
2024/03/03 10:01:05;;;;;;;9.85;6.03;;;15.80;99.90;;;;;;4084076;28;20431;-69
2024/03/03 10:03:09;;;;;;;10.48;6.43;;;15.80;99.90;;;;;;4097392;28;20035;-69
2024/03/03 10:05:11;;;;;;;11.23;6.95;;;15.90;99.90;;;;;;4077127;28;20027;-68
2024/03/03 10:07:22;;;;;;;9.93;6.53;;;15.90;99.90;;;;;;4096983;28;20509;-69
2024/03/03 10:09:24;;;;;;;10.35;6.22;;;16.00;99.90;;;;;;4095986;28;20441;-69
2024/03/03 10:11:26;;;;;;;10.93;6.63;;;16.10;99.90;;;;;;4077506;29;20044;-69
2024/03/03 10:13:29;;;;;;;12.07;6.60;;;16.10;99.90;;;;;;4096735;28;21380;-68
2024/03/03 10:15:30;;;;;;;10.75;6.40;;;16.30;99.90;;;;;;4094692;28;20035;-68
2024/03/03 10:17:31;;;;;;;10.05;6.55;;;16.30;99.90;;;;;;4093334;28;20089;-68
2024/03/03 10:19:32;;;;;;;10.88;5.88;;;16.30;99.90;;;;;;4092755;28;20040;-69
2024/03/03 10:21:35;;;;;;;10.82;6.35;;;16.40;99.90;;;;;;4092646;28;20320;-69
2024/03/03 10:23:36;;;;;;;9.57;5.75;;;16.50;99.90;;;;;;4095138;28;20420;-68
2024/03/03 10:25:37;;;;;;;8.93;6.10;;;16.60;99.90;;;;;;4095896;28;20058;-68
2024/03/03 10:27:44;;;;;;;9.00;5.90;;;16.70;99.90;;;;;;4096234;28;20115;-69
2024/03/03 10:29:47;;;;;;;9.25;5.95;;;16.80;99.90;;;;;;4105162;28;20118;-67